Time;durP1;ratioP1;P1;durP2;ratioP2;P2;SDS_P1;SDS_P2;PMS_P1;PMS_P2;Temp;Humidity;BMP_temperature;BMP_pressure;BME280_temperature;BME280_humidity;BME280_pressure;Samples;Min_cycle;Max_cycle;Signal;HPM_P1;HPM_P2
2023/10/15 00:00:00;;;;;;;;;;;;;;;9.89;100.00;95829.44;10481166;28;2742;-75
2023/10/15 00:05:03;;;;;;;;;;;;;;;9.88;100.00;95835.88;10480964;28;2742;-74
2023/10/15 00:10:06;;;;;;;;;;;;;;;9.82;100.00;95828.09;10480688;28;2776;-75
2023/10/15 00:15:13;;;;;;;;;;;;;;;9.77;100.00;95828.88;10486149;28;2671;-75
2023/10/15 00:20:16;;;;;;;;;;;;;;;9.79;100.00;95834.78;10485464;28;2734;-75
2023/10/15 00:25:19;;;;;;;;;;;;;;;9.74;100.00;95835.59;10485873;28;2670;-75
2023/10/15 00:30:22;;;;;;;;;;;;;;;9.57;100.00;95843.06;10487095;28;2697;-76
2023/10/15 00:35:25;;;;;;;;;;;;;;;9.65;100.00;95841.75;10488440;28;2646;-76
2023/10/15 00:40:27;;;;;;;;;;;;;;;9.55;100.00;95845.22;10481423;28;2628;-74
2023/10/15 00:45:34;;;;;;;;;;;;;;;9.48;100.00;95839.31;10489634;28;5173;-74
2023/10/15 00:50:38;;;;;;;;;;;;;;;9.37;100.00;95837.66;10488015;28;2598;-74
2023/10/15 00:55:42;;;;;;;;;;;;;;;9.24;100.00;95832.78;10485602;28;2681;-75
2023/10/15 01:00:52;;;;;;;;;;;;;;;9.09;100.00;95847.75;10483780;28;2693;-74
2023/10/15 01:05:59;;;;;;;;;;;;;;;8.91;100.00;95845.53;10488107;28;2598;-75
2023/10/15 01:11:01;;;;;;;;;;;;;;;8.85;100.00;95851.94;10485866;28;2592;-75
2023/10/15 01:16:05;;;;;;;;;;;;;;;8.75;100.00;95830.44;10489340;28;2646;-73
2023/10/15 01:21:13;;;;;;;;;;;;;;;8.64;100.00;95829.56;10485807;28;2678;-76
2023/10/15 01:26:23;;;;;;;;;;;;;;;8.62;100.00;95837.88;10482961;28;2608;-75
2023/10/15 01:31:25;;;;;;;;;;;;;;;8.76;100.00;95837.41;10483883;28;2702;-77
2023/10/15 01:36:28;;;;;;;;;;;;;;;8.71;100.00;95837.38;10484409;28;2647;-75
2023/10/15 01:41:31;;;;;;;;;;;;;;;8.54;100.00;95833.00;10471178;28;2700;-75
2023/10/15 01:46:45;;;;;;;;;;;;;;;8.32;100.00;95832.28;10484398;28;2594;-75
2023/10/15 01:51:47;;;;;;;;;;;;;;;8.16;100.00;95828.69;10484507;28;2621;-75
2023/10/15 01:56:50;;;;;;;;;;;;;;;8.17;100.00;95841.03;10483183;28;2690;-75
2023/10/15 02:01:52;;;;;;;;;;;;;;;8.16;100.00;95828.69;10484861;28;2697;-75
2023/10/15 02:06:55;;;;;;;;;;;;;;;8.06;100.00;95829.41;10483491;28;2986;-75
2023/10/15 02:11:58;;;;;;;;;;;;;;;8.06;100.00;95824.06;10490249;28;2836;-74
2023/10/15 02:17:03;;;;;;;;;;;;;;;8.19;100.00;95828.19;10484432;28;2589;-77
2023/10/15 02:22:06;;;;;;;;;;;;;;;8.19;100.00;95830.06;10481434;28;2596;-74
2023/10/15 02:27:09;;;;;;;;;;;;;;;8.31;100.00;95811.94;10481424;28;2637;-75
2023/10/15 02:32:21;;;;;;;;;;;;;;;8.43;100.00;95811.78;10482924;28;2550;-74
2023/10/15 02:37:26;;;;;;;;;;;;;;;8.47;100.00;95810.19;10477925;28;2680;-76
2023/10/15 02:42:33;;;;;;;;;;;;;;;8.47;100.00;95824.41;10484629;28;5131;-75
2023/10/15 02:47:42;;;;;;;;;;;;;;;8.52;100.00;95826.28;10482222;28;2799;-75
2023/10/15 02:52:45;;;;;;;;;;;;;;;8.46;100.00;95824.63;10481941;28;2608;-75
2023/10/15 02:57:51;;;;;;;;;;;;;;;8.47;100.00;95829.75;10483944;28;2938;-74
2023/10/15 03:02:54;;;;;;;;;;;;;;;8.38;100.00;95839.31;10483232;28;3013;-76
2023/10/15 03:07:59;;;;;;;;;;;;;;;8.40;100.00;95842.56;10486107;28;2632;-75
2023/10/15 03:13:02;;;;;;;;;;;;;;;8.42;100.00;95827.03;10489466;28;2612;-75
2023/10/15 03:18:14;;;;;;;;;;;;;;;8.49;100.00;95816.91;10483258;28;2697;-76
2023/10/15 03:23:17;;;;;;;;;;;;;;;8.51;100.00;95830.84;10480478;28;2616;-76
2023/10/15 03:28:19;;;;;;;;;;;;;;;8.51;100.00;95822.78;10479697;28;2647;-75
2023/10/15 03:33:23;;;;;;;;;;;;;;;8.41;100.00;95825.44;10482107;28;2683;-74
2023/10/15 03:38:32;;;;;;;;;;;;;;;8.28;100.00;95832.00;10478477;28;2691;-74
2023/10/15 03:43:35;;;;;;;;;;;;;;;8.26;100.00;95831.44;10482421;28;4745;-73
2023/10/15 03:48:47;;;;;;;;;;;;;;;8.20;100.00;95823.63;10479379;28;2678;-74
2023/10/15 03:53:50;;;;;;;;;;;;;;;8.20;100.00;95834.34;10487160;28;2664;-75
2023/10/15 03:58:53;;;;;;;;;;;;;;;8.21;100.00;95830.63;10488010;28;2638;-74
2023/10/15 04:03:55;;;;;;;;;;;;;;;8.10;100.00;95821.69;10474057;28;2640;-74
2023/10/15 04:09:09;;;;;;;;;;;;;;;7.96;100.00;95823.19;10488015;28;2745;-75
2023/10/15 04:14:17;;;;;;;;;;;;;;;7.81;100.00;95815.84;10497507;28;2653;-76
2023/10/15 04:19:20;;;;;;;;;;;;;;;7.71;100.00;95815.75;10491786;28;2666;-75
2023/10/15 04:24:28;;;;;;;;;;;;;;;7.65;100.00;95808.75;10488561;28;2626;-75
2023/10/15 04:29:31;;;;;;;;;;;;;;;7.52;100.00;95808.09;10487666;28;2685;-76
2023/10/15 04:34:33;;;;;;;;;;;;;;;7.52;100.00;95808.09;10486926;28;2560;-76
2023/10/15 04:39:46;;;;;;;;;;;;;;;7.44;100.00;95805.84;10486873;28;2649;-76
2023/10/15 04:45:20;;;;;;;;;;;;;;;7.31;100.00;95800.91;10483351;28;4754;-76
2023/10/15 04:50:28;;;;;;;;;;;;;;;7.24;100.00;95806.47;10488081;28;2945;-76
2023/10/15 04:55:30;;;;;;;;;;;;;;;7.15;100.00;95809.84;10495315;28;2617;-76
2023/10/15 05:00:35;;;;;;;;;;;;;;;7.10;100.00;95818.63;10517136;28;2123;-75
2023/10/15 05:05:37;;;;;;;;;;;;;;;7.02;100.00;95821.72;10519376;28;1555;-76
2023/10/15 05:10:44;;;;;;;;;;;;;;;6.95;100.00;95819.25;10521710;28;1496;-76
2023/10/15 05:15:47;;;;;;;;;;;;;;;7.05;100.00;95826.56;10515701;28;1983;-75
2023/10/15 05:20:50;;;;;;;;;;;;;;;7.06;100.00;95828.19;10515514;28;2088;-76
2023/10/15 05:25:53;;;;;;;;;;;;;;;7.04;100.00;95817.75;10521980;28;1496;-75
2023/10/15 05:30:57;;;;;;;;;;;;;;;7.19;100.00;95827.81;10516957;28;1663;-78
2023/10/15 05:36:00;;;;;;;;;;;;;;;7.28;100.00;95831.66;10517943;28;3187;-74
2023/10/15 05:41:03;;;;;;;;;;;;;;;7.50;100.00;95831.59;10499685;28;4786;-74
2023/10/15 05:46:05;;;;;;;;;;;;;;;7.75;100.00;95822.19;10517589;28;1472;-74
2023/10/15 05:51:09;;;;;;;;;;;;;;;8.02;100.00;95827.53;10495435;28;1783;-76
2023/10/15 05:56:11;;;;;;;;;;;;;;;8.19;100.00;95830.06;10527192;28;1509;-74
2023/10/15 06:01:15;;;;;;;;;;;;;;;8.21;100.00;95835.97;10509821;28;1974;-76
2023/10/15 06:06:17;;;;;;;;;;;;;;;8.28;100.00;95836.56;10519452;28;1886;-76
2023/10/15 06:11:20;;;;;;;;;;;;;;;8.44;100.00;95840.16;10524780;28;1447;-77
2023/10/15 06:16:22;;;;;;;;;;;;;;;8.60;100.00;95848.06;10520191;28;1551;-75
2023/10/15 06:21:27;;;;;;;;;;;;;;;8.72;100.00;95847.84;10512926;28;2927;-76
2023/10/15 06:26:33;;;;;;;;;;;;;;;8.79;100.00;95853.78;10510487;28;1484;-75
2023/10/15 06:31:35;;;;;;;;;;;;;;;8.90;100.00;95850.06;10513706;28;1465;-76
2023/10/15 06:36:38;;;;;;;;;;;;;;;9.02;100.00;95849.84;10517494;28;1977;-78
2023/10/15 06:41:40;;;;;;;;;;;;;;;9.13;100.00;95846.16;10512964;28;4781;-74
2023/10/15 06:46:43;;;;;;;;;;;;;;;9.37;100.00;95848.41;10519274;28;1451;-74
2023/10/15 06:51:49;;;;;;;;;;;;;;;9.48;100.00;95844.69;10512927;28;1831;-74
2023/10/15 06:56:51;;;;;;;;;;;;;;;10.07;100.00;95836.16;10512879;28;1905;-75
2023/10/15 07:01:54;;;;;;;;;;;;;;;10.33;100.00;95839.66;10513046;28;1578;-76
2023/10/15 07:06:56;;;;;;;;;;;;;;;10.25;100.00;95849.09;10507962;28;3152;-75
2023/10/15 07:11:59;;;;;;;;;;;;;;;10.37;100.00;95843.44;10518060;28;1582;-77
2023/10/15 07:17:03;;;;;;;;;;;;;;;10.42;100.00;95839.91;10515792;28;1979;-78
2023/10/15 07:22:06;;;;;;;;;;;;;;;10.66;100.00;95824.03;10519156;28;1872;-75
2023/10/15 07:27:08;;;;;;;;;;;;;;;10.72;100.00;95831.00;10519642;28;1462;-76
2023/10/15 07:32:10;;;;;;;;;;;;;;;11.16;100.00;95841.09;10527528;28;1421;-77
2023/10/15 07:37:14;;;;;;;;;;;;;;;11.20;100.00;95842.97;10524019;28;2089;-75
2023/10/15 07:42:16;;;;;;;;;;;;;;;10.87;100.00;95852.47;10527039;28;1778;-75
2023/10/15 07:47:18;;;;;;;;;;;;;;;11.04;100.00;95860.22;10519507;28;1497;-74
2023/10/15 07:52:21;;;;;;;;;;;;;;;10.90;100.00;95860.00;10523031;28;2974;-75
2023/10/15 07:57:24;;;;;;;;;;;;;;;10.76;100.00;95849.00;10526191;28;1906;-77
2023/10/15 08:02:27;;;;;;;;;;;;;;;10.93;100.00;95839.81;10523648;28;1606;-76
2023/10/15 08:07:29;;;;;;;;;;;;;;;11.20;100.00;95840.28;10519922;28;1656;-75
2023/10/15 08:12:32;;;;;;;;;;;;;;;11.28;100.00;95845.06;10524804;28;1593;-75
2023/10/15 08:17:34;;;;;;;;;;;;;;;11.50;100.00;95835.81;10530452;28;1972;-75
2023/10/15 08:22:40;;;;;;;;;;;;;;;11.76;100.00;95833.75;10518065;28;1688;-76
2023/10/15 08:27:44;;;;;;;;;;;;;;;11.74;100.00;95834.06;10522462;28;1767;-75
2023/10/15 08:32:47;;;;;;;;;;;;;;;11.26;100.00;95831.09;10524105;28;1498;-75
2023/10/15 08:37:50;;;;;;;;;;;;;;;11.03;100.00;95839.78;10509222;28;2980;-75
2023/10/15 08:42:53;;;;;;;;;;;;;;;10.58;100.00;95841.53;10491573;28;4705;-75
2023/10/15 08:47:55;;;;;;;;;;;;;;;10.37;100.00;95834.53;10487347;28;2651;-73
2023/10/15 08:52:59;;;;;;;;;;;;;;;10.16;100.00;95861.41;10485249;28;2687;-74
2023/10/15 08:58:02;;;;;;;;;;;;;;;7.92;100.00;95923.78;10487657;28;2752;-75
2023/10/15 09:03:05;;;;;;;;;;;;;;;7.10;100.00;95911.38;10486583;28;2673;-75
2023/10/15 09:08:07;;;;;;;;;;;;;;;7.14;100.00;95933.88;10486447;28;2685;-76
2023/10/15 09:13:14;;;;;;;;;;;;;;;7.14;100.00;95931.22;10490043;28;2612;-75
2023/10/15 09:18:17;;;;;;;;;;;;;;;7.14;100.00;95931.22;10488664;28;2697;-75
2023/10/15 09:23:21;;;;;;;;;;;;;;;7.59;100.00;95925.59;10507645;28;2780;-75
2023/10/15 09:28:27;;;;;;;;;;;;;;;7.92;100.00;95927.28;10487720;28;2658;-74
2023/10/15 09:33:31;;;;;;;;;;;;;;;8.29;100.00;95929.22;10484294;28;2814;-74
2023/10/15 09:38:33;;;;;;;;;;;;;;;8.67;100.00;95944.28;10482258;28;2655;-74
2023/10/15 09:43:36;;;;;;;;;;;;;;;8.69;100.00;95947.50;10485451;28;4661;-76
2023/10/15 09:48:40;;;;;;;;;;;;;;;8.50;100.00;95939.06;10481858;28;2728;-75
2023/10/15 09:53:43;;;;;;;;;;;;;;;8.54;100.00;95937.50;10484168;28;2715;-75
2023/10/15 09:58:45;;;;;;;;;;;;;;;9.04;100.00;95944.28;10465191;28;2644;-74
2023/10/15 10:03:48;;;;;;;;;;;;;;;9.17;100.00;95945.69;10483346;28;2725;-74
2023/10/15 10:08:51;;;;;;;;;;;;;;;9.42;100.00;95931.59;10482553;28;2836;-77
2023/10/15 10:13:54;;;;;;;;;;;;;;;9.47;100.00;95918.97;10487357;28;2677;-75
2023/10/15 10:18:56;;;;;;;;;;;;;;;9.54;100.00;95902.63;10488064;28;2581;-74
2023/10/15 10:23:58;;;;;;;;;;;;;;;9.63;100.00;95893.00;10484995;28;2593;-77
2023/10/15 10:29:02;;;;;;;;;;;;;;;10.06;100.00;95885.59;10486973;28;2744;-75
2023/10/15 10:34:05;;;;;;;;;;;;;;;9.47;100.00;95885.97;10481178;28;2586;-75
2023/10/15 10:39:10;;;;;;;;;;;;;;;9.13;100.00;95883.69;10486418;28;3044;-74
2023/10/15 10:44:12;;;;;;;;;;;;;;;9.22;100.00;95884.00;10487209;28;2731;-75
2023/10/15 10:49:29;;;;;;;;;;;;;;;9.40;100.00;95872.81;10483374;28;2684;-74
2023/10/15 10:54:31;;;;;;;;;;;;;;;9.58;100.00;95881.44;10481540;28;2938;-73
2023/10/15 10:59:34;;;;;;;;;;;;;;;9.81;100.00;95874.81;10482089;28;2593;-75
2023/10/15 11:04:36;;;;;;;;;;;;;;;9.54;100.00;95872.31;10479832;28;2883;-75
2023/10/15 11:09:39;;;;;;;;;;;;;;;9.14;100.00;95874.59;10482202;28;2700;-72
2023/10/15 11:14:45;;;;;;;;;;;;;;;8.88;100.00;95878.22;10487997;28;2638;-74
2023/10/15 11:19:48;;;;;;;;;;;;;;;8.69;100.00;95888.56;10516477;28;2535;-74
2023/10/15 11:24:51;;;;;;;;;;;;;;;8.53;100.00;95895.69;10510802;28;2090;-73
2023/10/15 11:29:53;;;;;;;;;;;;;;;8.51;100.00;95895.13;10515972;28;1499;-74
2023/10/15 11:34:57;;;;;;;;;;;;;;;8.44;100.00;95901.78;10492590;28;2023;-73
2023/10/15 11:40:00;;;;;;;;;;;;;;;8.21;100.00;95905.59;10509622;28;1969;-73
2023/10/15 11:45:04;;;;;;;;;;;;;;;7.86;100.00;95888.13;10513506;28;4809;-76
2023/10/15 11:50:07;;;;;;;;;;;;;;;8.04;100.00;95890.44;10509938;28;1609;-73
2023/10/15 11:55:10;;;;;;;;;;;;;;;8.48;100.00;95889.50;10511928;28;2444;-74
2023/10/15 12:00:22;;;;;;;;;;;;;;;8.52;100.00;95891.38;10514363;28;1913;-74
2023/10/15 12:05:27;;;;;;;;;;;;;;;8.56;100.00;95887.13;10516046;28;1448;-73
2023/10/15 12:10:32;;;;;;;;;;;;;;;8.32;100.00;95891.22;10513324;28;2617;-75
2023/10/15 12:15:34;;;;;;;;;;;;;;;8.35;100.00;95890.72;10511320;28;1862;-74
2023/10/15 12:20:37;;;;;;;;;;;;;;;8.55;100.00;95900.78;10523015;28;1977;-75
2023/10/15 12:25:40;;;;;;;;;;;;;;;8.56;100.00;95889.81;10517770;28;2073;-74
2023/10/15 12:30:42;;;;;;;;;;;;;;;8.65;100.00;95885.59;10524442;28;1465;-75
2023/10/15 12:35:47;;;;;;;;;;;;;;;9.10;100.00;95868.16;10517844;28;1823;-74
2023/10/15 12:40:49;;;;;;;;;;;;;;;9.79;100.00;95875.03;10518984;28;1898;-74
2023/10/15 12:45:53;;;;;;;;;;;;;;;9.81;100.00;95872.13;10527652;28;1409;-75
2023/10/15 12:50:56;;;;;;;;;;;;;;;9.73;100.00;95879.63;10519171;28;1499;-74
2023/10/15 12:55:59;;;;;;;;;;;;;;;9.82;100.00;95903.25;10500027;28;3487;-74
2023/10/15 13:01:02;;;;;;;;;;;;;;;10.02;100.00;95887.97;10519986;28;1979;-75
2023/10/15 13:06:06;;;;;;;;;;;;;;;10.10;100.00;95881.28;10493385;28;2578;-74
2023/10/15 13:11:11;;;;;;;;;;;;;;;9.91;100.00;95896.28;10494542;28;2711;-73
2023/10/15 13:16:13;;;;;;;;;;;;;;;7.89;100.00;95949.22;10497905;28;2585;-73
2023/10/15 13:21:16;;;;;;;;;;;;;;;6.98;100.00;95940.88;10482032;28;2695;-74
2023/10/15 13:26:18;;;;;;;;;;;;;;;6.81;100.00;95956.97;10482579;28;2602;-73
2023/10/15 13:31:22;;;;;;;;;;;;;;;6.64;100.00;95934.78;10484525;28;2636;-76
2023/10/15 13:36:25;;;;;;;;;;;;;;;6.84;100.00;95918.22;10468563;28;2717;-74
2023/10/15 13:41:28;;;;;;;;;;;;;;;7.32;100.00;95920.22;10486148;28;4723;-75
2023/10/15 13:46:30;;;;;;;;;;;;;;;7.58;100.00;95926.66;10485390;28;2671;-74
2023/10/15 13:51:33;;;;;;;;;;;;;;;8.12;100.00;95934.69;10484938;28;2705;-75
2023/10/15 13:56:35;;;;;;;;;;;;;;;8.57;100.00;95931.63;10486256;28;2633;-75
2023/10/15 14:01:38;;;;;;;;;;;;;;;8.93;100.00;95930.00;10468888;28;2673;-74
2023/10/15 14:06:42;;;;;;;;;;;;;;;8.85;100.00;95922.44;10482898;28;2929;-73
2023/10/15 14:11:44;;;;;;;;;;;;;;;8.35;100.00;95906.78;10492342;28;2598;-73
2023/10/15 14:16:48;;;;;;;;;;;;;;;7.94;100.00;95938.53;10486140;28;2616;-76
2023/10/15 14:21:50;;;;;;;;;;;;;;;7.69;100.00;95932.91;10486906;28;2645;-75
2023/10/15 14:26:53;;;;;;;;;;;;;;;7.66;100.00;95944.13;10485060;28;2606;-74
2023/10/15 14:31:55;;;;;;;;;;;;;;;7.62;100.00;95951.84;10484692;28;2601;-75
2023/10/15 14:37:00;;;;;;;;;;;;;;;7.70;100.00;95951.41;10483402;28;2600;-73
2023/10/15 14:42:03;;;;;;;;;;;;;;;7.86;100.00;95952.38;10483291;28;2625;-75
2023/10/15 14:47:05;;;;;;;;;;;;;;;7.77;100.00;95948.53;10485299;28;2711;-74
2023/10/15 14:52:08;;;;;;;;;;;;;;;7.75;100.00;95958.66;10483243;28;2608;-74
2023/10/15 14:57:10;;;;;;;;;;;;;;;7.74;100.00;95973.09;10481064;28;2637;-74
2023/10/15 15:02:14;;;;;;;;;;;;;;;7.82;100.00;95961.94;10484274;28;2706;-74
2023/10/15 15:07:16;;;;;;;;;;;;;;;7.79;100.00;95962.47;10486223;28;2748;-74
2023/10/15 15:12:19;;;;;;;;;;;;;;;7.96;100.00;95955.16;10486767;28;2610;-74
2023/10/15 15:17:21;;;;;;;;;;;;;;;8.12;100.00;95967.63;10475575;28;2644;-76
2023/10/15 15:22:24;;;;;;;;;;;;;;;8.37;100.00;95971.63;10485102;28;2620;-75
2023/10/15 15:27:26;;;;;;;;;;;;;;;8.69;100.00;95978.88;10485054;28;2593;-75
2023/10/15 15:32:29;;;;;;;;;;;;;;;8.66;100.00;95991.72;10483325;28;2702;-75
2023/10/15 15:37:32;;;;;;;;;;;;;;;8.42;100.00;96003.84;10480152;28;2632;-74
2023/10/15 15:42:37;;;;;;;;;;;;;;;8.04;100.00;96005.56;10483658;28;2629;-73
2023/10/15 15:47:39;;;;;;;;;;;;;;;7.92;100.00;96017.47;10486729;28;2608;-73
2023/10/15 15:52:44;;;;;;;;;;;;;;;7.76;100.00;96027.19;10492206;28;2663;-73
2023/10/15 15:57:47;;;;;;;;;;;;;;;7.50;100.00;96034.88;10491038;28;2914;-75
2023/10/15 16:02:49;;;;;;;;;;;;;;;7.28;100.00;96044.75;10487177;28;2966;-74
2023/10/15 16:07:52;;;;;;;;;;;;;;;7.19;100.00;96048.88;10485917;28;2684;-75
2023/10/15 16:12:54;;;;;;;;;;;;;;;7.12;100.00;96061.63;10487525;28;2638;-74
2023/10/15 16:17:58;;;;;;;;;;;;;;;6.90;100.00;96072.25;10494593;28;2602;-77
2023/10/15 16:23:01;;;;;;;;;;;;;;;6.88;100.00;96075.16;10490652;28;2666;-75
2023/10/15 16:28:03;;;;;;;;;;;;;;;6.82;100.00;96080.66;10487038;28;2731;-74
2023/10/15 16:33:06;;;;;;;;;;;;;;;6.59;100.00;96097.63;10489052;28;2640;-74
2023/10/15 16:38:08;;;;;;;;;;;;;;;6.42;100.00;96109.06;10491493;28;3028;-74
2023/10/15 16:43:11;;;;;;;;;;;;;;;6.35;100.00;96115.63;10491428;28;2650;-75
2023/10/15 16:48:13;;;;;;;;;;;;;;;6.36;100.00;96135.91;10489067;28;2609;-74
2023/10/15 16:53:16;;;;;;;;;;;;;;;6.41;100.00;96139.50;10484755;28;2678;-75
2023/10/15 16:58:18;;;;;;;;;;;;;;;6.60;100.00;96153.47;10487559;28;2673;-73
2023/10/15 17:03:21;;;;;;;;;;;;;;;6.82;100.00;96156.28;10501945;28;3041;-73
2023/10/15 17:08:23;;;;;;;;;;;;;;;6.89;100.00;96177.53;10494576;28;2826;-75
2023/10/15 17:13:26;;;;;;;;;;;;;;;6.75;100.00;96177.00;10489284;28;2641;-72
2023/10/15 17:18:28;;;;;;;;;;;;;;;6.56;100.00;96188.94;10488064;28;2663;-75
2023/10/15 17:23:31;;;;;;;;;;;;;;;6.32;100.00;96193.53;10486736;28;2578;-75
2023/10/15 17:28:34;;;;;;;;;;;;;;;6.20;100.00;96197.03;10487781;28;2748;-74
2023/10/15 17:33:36;;;;;;;;;;;;;;;6.11;100.00;96201.13;10487029;28;2599;-74
2023/10/15 17:38:40;;;;;;;;;;;;;;;6.08;100.00;96209.59;10486065;28;2653;-74
2023/10/15 17:43:44;;;;;;;;;;;;;;;5.93;100.00;96210.06;10485661;28;4576;-75
2023/10/15 17:48:47;;;;;;;;;;;;;;;5.81;100.00;96214.56;10485257;28;2629;-75
2023/10/15 17:53:56;;;;;;;;;;;;;;;5.70;100.00;96210.84;10487588;28;2577;-72
2023/10/15 17:58:58;;;;;;;;;;;;;;;5.60;100.00;96212.50;10483563;28;2572;-73
2023/10/15 18:04:01;;;;;;;;;;;;;;;5.52;100.00;96215.47;10485931;28;2608;-73
2023/10/15 18:09:03;;;;;;;;;;;;;;;5.47;100.00;96215.34;10482733;28;2609;-74
2023/10/15 18:14:06;;;;;;;;;;;;;;;5.49;100.00;96229.28;10496010;28;2632;-72
2023/10/15 18:19:10;;;;;;;;;;;;;;;5.41;100.00;96233.09;10485069;28;2653;-73
2023/10/15 18:24:13;;;;;;;;;;;;;;;5.40;100.00;96232.25;10469914;28;2604;-72
2023/10/15 18:29:16;;;;;;;;;;;;;;;5.35;100.00;96240.16;10483474;28;2632;-74
2023/10/15 18:34:18;;;;;;;;;;;;;;;5.41;100.00;96241.91;10481536;28;2636;-72
2023/10/15 18:39:21;;;;;;;;;;;;;;;5.39;100.00;96245.84;10481923;28;2705;-75
2023/10/15 18:44:24;;;;;;;;;;;;;;;5.40;100.00;96250.13;10484105;28;4707;-73
2023/10/15 18:49:27;;;;;;;;;;;;;;;5.33;100.00;96255.56;10488215;28;2642;-74
2023/10/15 18:54:29;;;;;;;;;;;;;;;5.29;100.00;96264.25;10481939;28;2692;-72
2023/10/15 18:59:32;;;;;;;;;;;;;;;5.28;100.00;96263.44;10481356;28;7082;-73
2023/10/15 19:04:34;;;;;;;;;;;;;;;5.29;100.00;96273.06;10477136;28;5601;-74
2023/10/15 19:09:37;;;;;;;;;;;;;;;5.30;100.00;96282.69;10497809;28;5426;-76
2023/10/15 19:14:41;;;;;;;;;;;;;;;5.29;100.00;96291.72;10501160;28;2666;-76
2023/10/15 19:19:43;;;;;;;;;;;;;;;5.33;100.00;96292.88;10505986;28;5464;-79
2023/10/15 19:24:46;;;;;;;;;;;;;;;5.26;100.00;96292.16;10508493;28;2588;-78
2023/10/15 19:29:48;;;;;;;;;;;;;;;5.19;100.00;96291.44;10512963;28;2601;-77
2023/10/15 19:34:51;;;;;;;;;;;;;;;5.09;100.00;96297.34;10504616;28;5394;-80
2023/10/15 19:39:53;;;;;;;;;;;;;;;5.16;100.00;96310.56;10499152;28;3041;-78
2023/10/15 19:44:56;;;;;;;;;;;;;;;5.07;100.00;96310.06;10503284;28;2555;-79
2023/10/15 19:49:58;;;;;;;;;;;;;;;4.95;100.00;96319.03;10501967;28;2573;-77
2023/10/15 19:55:02;;;;;;;;;;;;;;;5.05;100.00;96324.66;10501578;28;2582;-78
2023/10/15 20:00:18;;;;;;;;;;;;;;;5.03;100.00;96311.56;10496453;28;2969;-77
2023/10/15 20:05:21;;;;;;;;;;;;;;;4.93;100.00;96321.13;10504314;28;2690;-78
2023/10/15 20:10:23;;;;;;;;;;;;;;;4.88;100.00;96317.25;10507326;28;5200;-78
2023/10/15 20:15:26;;;;;;;;;;;;;;;4.85;100.00;96320.41;10507024;28;2655;-78
2023/10/15 20:20:29;;;;;;;;;;;;;;;4.87;100.00;96325.50;10497116;28;2616;-79
2023/10/15 20:25:32;;;;;;;;;;;;;;;4.81;100.00;96321.88;10506013;28;2758;-78
2023/10/15 20:30:34;;;;;;;;;;;;;;;4.74;100.00;96320.31;10505391;28;2562;-79
2023/10/15 20:35:37;;;;;;;;;;;;;;;4.77;100.00;96330.53;10499191;28;2771;-78
2023/10/15 20:40:40;;;;;;;;;;;;;;;4.71;100.00;96326.91;10505114;28;2617;-77
2023/10/15 20:45:42;;;;;;;;;;;;;;;4.69;100.00;96326.31;10493196;28;2717;-77
2023/10/15 20:50:46;;;;;;;;;;;;;;;4.63;100.00;96329.88;10498745;28;2638;-78
2023/10/15 20:55:49;;;;;;;;;;;;;;;4.48;100.00;96334.75;10498066;28;2614;-76
2023/10/15 21:00:51;;;;;;;;;;;;;;;4.37;100.00;96336.28;10495331;28;2683;-77
2023/10/15 21:05:55;;;;;;;;;;;;;;;4.38;100.00;96329.13;10502445;28;2618;-77
2023/10/15 21:10:57;;;;;;;;;;;;;;;4.31;100.00;96330.00;10499720;28;5067;-74
2023/10/15 21:15:59;;;;;;;;;;;;;;;4.27;100.00;96336.81;10509561;28;2541;-73
2023/10/15 21:21:02;;;;;;;;;;;;;;;4.30;100.00;96340.88;10503125;28;2648;-74
2023/10/15 21:26:05;;;;;;;;;;;;;;;4.36;100.00;96328.53;10496018;28;2689;-74
2023/10/15 21:31:08;;;;;;;;;;;;;;;4.44;100.00;96325.56;10483163;28;2656;-75
2023/10/15 21:36:11;;;;;;;;;;;;;;;4.38;100.00;96323.78;10512984;28;2841;-73
2023/10/15 21:41:13;;;;;;;;;;;;;;;4.36;100.00;96325.88;10495909;28;2613;-74
2023/10/15 21:46:18;;;;;;;;;;;;;;;4.27;100.00;96328.81;10500570;28;2720;-75
2023/10/15 21:51:21;;;;;;;;;;;;;;;4.32;100.00;96326.28;10504881;28;2687;-73
2023/10/15 21:56:24;;;;;;;;;;;;;;;4.25;100.00;96322.88;10501158;28;2694;-73
2023/10/15 22:01:27;;;;;;;;;;;;;;;4.18;100.00;96316.00;10494747;28;2590;-75
2023/10/15 22:06:30;;;;;;;;;;;;;;;4.17;100.00;96331.16;10496326;28;2641;-74
2023/10/15 22:11:33;;;;;;;;;;;;;;;4.06;100.00;96322.03;10501336;28;5167;-75
2023/10/15 22:16:35;;;;;;;;;;;;;;;3.99;100.00;96315.97;10502834;28;2574;-73
2023/10/15 22:21:43;;;;;;;;;;;;;;;3.97;100.00;96315.41;10486731;28;2613;-74
2023/10/15 22:26:48;;;;;;;;;;;;;;;3.99;100.00;96321.31;10501976;28;2592;-74
2023/10/15 22:31:52;;;;;;;;;;;;;;;3.93;100.00;96318.69;10504352;28;2638;-74
2023/10/15 22:36:55;;;;;;;;;;;;;;;3.81;100.00;96318.59;10501842;28;2544;-75
2023/10/15 22:41:59;;;;;;;;;;;;;;;3.91;100.00;96312.78;10505120;28;2632;-74
2023/10/15 22:47:01;;;;;;;;;;;;;;;3.89;100.00;96304.22;10503208;28;2966;-73
2023/10/15 22:52:04;;;;;;;;;;;;;;;3.82;100.00;96314.09;10505706;28;2761;-74
2023/10/15 22:57:06;;;;;;;;;;;;;;;3.71;100.00;96311.13;10503766;28;2772;-75
2023/10/15 23:02:13;;;;;;;;;;;;;;;3.65;100.00;96303.19;10507446;28;2808;-75
2023/10/15 23:07:16;;;;;;;;;;;;;;;3.55;100.00;96300.19;10478127;28;4882;-74
2023/10/15 23:12:18;;;;;;;;;;;;;;;3.47;100.00;96301.28;10508918;28;2628;-75
2023/10/15 23:17:26;;;;;;;;;;;;;;;3.40;100.00;96303.19;10502179;28;2730;-74
2023/10/15 23:22:29;;;;;;;;;;;;;;;3.37;100.00;96298.28;10497204;28;2730;-74
2023/10/15 23:27:31;;;;;;;;;;;;;;;3.29;100.00;96295.88;10491217;28;2642;-75
2023/10/15 23:32:34;;;;;;;;;;;;;;;3.21;100.00;96297.78;10498432;28;2675;-73
2023/10/15 23:37:36;;;;;;;;;;;;;;;3.23;100.00;96295.72;10499174;28;3021;-72
2023/10/15 23:42:39;;;;;;;;;;;;;;;3.16;100.00;96294.13;10492413;28;2657;-72
2023/10/15 23:47:41;;;;;;;;;;;;;;;3.09;100.00;96286.22;10499804;28;2612;-73
2023/10/15 23:52:44;;;;;;;;;;;;;;;3.00;100.00;96274.22;10499330;28;2656;-72
2023/10/15 23:57:49;;;;;;;;;;;;;;;2.95;100.00;96279.34;10497594;28;2764;-73
